Guion, Arkansas
Current Conditions -  °F | °C
As of 11:15 PM on Friday 28 Nov 2014 (Local Time) from KBVX Reporting Station
Clear Clear  
Wind Chill:   Ceiling: Unl
Heat Index:   Visibility: 10mi
Dew Point:   Wind: 14mph
Humidity: 57%   Direction: 200°SSW
Pressure: 29.99"   Gusts: 22mph
Location:  35.93°N, 91.94°W
Report Text: KBVX 290515Z AUTO 20012G19KT 10SM CLR 09/01 A2999 RMK AO1
Loading
Personal Weather Stations






























Interactive Weather Map New forecast layout! Learn more

10-Day Weather Forecast

Advertisements
Track Severe Weather on mobile